Time;durP1;ratioP1;P1;durP2;ratioP2;P2;SDS_P1;SDS_P2;PMS_P1;PMS_P2;Temp;Humidity;BMP_temperature;BMP_pressure;BME280_temperature;BME280_humidity;BME280_pressure;Samples;Min_cycle;Max_cycle;Signal;HPM_P1;HPM_P2
2021/05/01 00:01:15;;;;;;;24.55;19.42;;;8.80;99.90;;;;;;5028156;28;20053;-45
2021/05/01 00:03:41;;;;;;;25.75;21.13;;;8.80;99.90;;;;;;5028321;28;20064;-44
2021/05/01 00:06:06;;;;;;;24.92;19.08;;;8.80;99.90;;;;;;5028163;28;20041;-44
2021/05/01 00:08:32;;;;;;;25.05;19.98;;;8.80;99.90;;;;;;5027446;28;20040;-45
2021/05/01 00:11:03;;;;;;;26.30;20.77;;;8.80;99.90;;;;;;5025843;28;20029;-46
2021/05/01 00:13:30;;;;;;;25.13;19.83;;;8.80;99.90;;;;;;5028206;28;20025;-45
2021/05/01 00:15:55;;;;;;;28.35;20.15;;;8.80;99.90;;;;;;5027525;28;20021;-44
2021/05/01 00:18:21;;;;;;;25.90;19.48;;;8.80;99.90;;;;;;5025787;28;20032;-44
2021/05/01 00:20:46;;;;;;;26.58;19.50;;;8.80;99.90;;;;;;5027825;28;20618;-45
2021/05/01 00:23:12;;;;;;;21.73;18.83;;;8.80;99.90;;;;;;5027867;28;20076;-44
2021/05/01 00:25:37;;;;;;;22.42;18.30;;;8.80;99.90;;;;;;5027717;28;20052;-45
2021/05/01 00:28:03;;;;;;;32.03;21.33;;;8.80;99.90;;;;;;5026044;28;20033;-46
2021/05/01 00:30:29;;;;;;;26.75;21.00;;;8.80;99.90;;;;;;5026438;28;20072;-46
2021/05/01 00:32:56;;;;;;;26.17;21.17;;;8.70;99.90;;;;;;5025132;28;20026;-47
2021/05/01 00:35:22;;;;;;;24.48;19.42;;;8.70;99.90;;;;;;5024804;28;20112;-43
2021/05/01 00:37:48;;;;;;;25.10;19.98;;;8.70;99.90;;;;;;5026701;28;20461;-46
2021/05/01 00:40:14;;;;;;;25.85;20.83;;;8.70;99.90;;;;;;5026300;28;20391;-45
2021/05/01 00:42:39;;;;;;;21.65;17.88;;;8.70;99.90;;;;;;5027224;28;20625;-48
2021/05/01 00:45:06;;;;;;;26.33;19.75;;;8.70;99.90;;;;;;5027565;28;20034;-45
2021/05/01 00:47:31;;;;;;;23.10;18.13;;;8.70;99.90;;;;;;5027249;28;20068;-46
2021/05/01 00:49:57;;;;;;;25.15;20.75;;;8.70;99.90;;;;;;5027794;28;20451;-45
2021/05/01 00:52:23;;;;;;;24.75;20.27;;;8.70;99.90;;;;;;5027702;28;20044;-45
2021/05/01 00:54:48;;;;;;;25.58;20.42;;;8.70;99.90;;;;;;5027477;28;20056;-45
2021/05/01 00:57:14;;;;;;;23.10;19.20;;;8.70;99.90;;;;;;5027002;28;20022;-44
2021/05/01 00:59:39;;;;;;;26.23;19.60;;;8.60;99.90;;;;;;5026458;28;20415;-45
2021/05/01 01:02:05;;;;;;;30.92;20.25;;;8.60;99.90;;;;;;5027501;28;20040;-44
2021/05/01 01:04:31;;;;;;;27.85;21.33;;;8.60;99.90;;;;;;5027522;28;20496;-45
2021/05/01 01:06:57;;;;;;;26.70;20.73;;;8.60;99.90;;;;;;5030211;28;20502;-44
2021/05/01 01:09:22;;;;;;;25.90;20.02;;;8.60;99.90;;;;;;5030629;28;20038;-45
2021/05/01 01:11:48;;;;;;;24.42;19.20;;;8.60;99.90;;;;;;5030160;28;20026;-45
2021/05/01 01:14:14;;;;;;;24.15;18.38;;;8.60;99.90;;;;;;5031298;28;20111;-44
2021/05/01 01:16:44;;;;;;;25.60;19.27;;;8.50;99.90;;;;;;5031588;28;20029;-45
2021/05/01 01:19:09;;;;;;;26.83;19.10;;;8.50;99.90;;;;;;5030885;28;20029;-45
2021/05/01 01:21:46;;;;;;;24.98;18.42;;;8.50;99.90;;;;;;5030666;28;20051;-44
2021/05/01 01:24:12;;;;;;;23.17;18.30;;;8.50;99.90;;;;;;5031135;28;20018;-43
2021/05/01 01:26:40;;;;;;;22.10;17.67;;;8.50;99.90;;;;;;5030671;28;20498;-47
2021/05/01 01:29:07;;;;;;;21.50;17.05;;;8.50;99.90;;;;;;5030147;28;20040;-43
2021/05/01 01:31:32;;;;;;;23.30;18.77;;;8.50;99.90;;;;;;5030696;28;20026;-45
2021/05/01 01:34:00;;;;;;;25.52;19.42;;;8.40;99.90;;;;;;5030939;28;20030;-45
2021/05/01 01:36:25;;;;;;;25.63;19.35;;;8.40;99.90;;;;;;5030452;28;20387;-46
2021/05/01 01:38:51;;;;;;;21.05;16.98;;;8.40;99.90;;;;;;5030401;28;20026;-44
2021/05/01 01:41:18;;;;;;;27.23;18.40;;;8.40;99.90;;;;;;5029771;28;20368;-45
2021/05/01 01:43:44;;;;;;;24.17;18.40;;;8.40;99.90;;;;;;5030389;28;20037;-45
2021/05/01 01:46:10;;;;;;;26.05;19.00;;;8.40;99.90;;;;;;5029334;28;20036;-45
2021/05/01 01:48:35;;;;;;;24.80;19.35;;;8.40;99.90;;;;;;5028475;28;20036;-45
2021/05/01 01:51:01;;;;;;;25.00;19.05;;;8.30;99.90;;;;;;5030919;28;20030;-44
2021/05/01 01:53:26;;;;;;;24.40;19.00;;;8.40;99.90;;;;;;5030671;28;20029;-45
2021/05/01 01:55:52;;;;;;;24.67;18.05;;;8.40;99.90;;;;;;5028849;28;20029;-44
2021/05/01 01:58:19;;;;;;;21.95;16.52;;;8.40;99.90;;;;;;5029618;28;20258;-45
2021/05/01 02:00:45;;;;;;;22.08;18.60;;;8.30;99.90;;;;;;5029000;28;20030;-44
2021/05/01 02:03:11;;;;;;;23.30;16.83;;;8.30;99.90;;;;;;5030318;28;20057;-45
2021/05/01 02:05:36;;;;;;;24.50;17.77;;;8.30;99.90;;;;;;5030511;28;20049;-45
2021/05/01 02:08:02;;;;;;;21.13;16.20;;;8.30;99.90;;;;;;5028875;28;20095;-46
2021/05/01 02:10:27;;;;;;;23.63;17.83;;;8.30;99.90;;;;;;5028290;28;20116;-44
2021/05/01 02:12:53;;;;;;;21.50;16.92;;;8.30;99.90;;;;;;5029245;28;20032;-45
2021/05/01 02:15:21;;;;;;;21.83;17.15;;;8.30;99.90;;;;;;5030256;28;20040;-45
2021/05/01 02:17:52;;;;;;;24.02;18.17;;;8.30;99.90;;;;;;5028627;28;20053;-45
2021/05/01 02:20:21;;;;;;;20.45;17.35;;;8.30;99.90;;;;;;5029730;28;20107;-45
2021/05/01 02:22:47;;;;;;;22.27;15.55;;;8.30;99.90;;;;;;5028692;28;20068;-44
2021/05/01 02:25:13;;;;;;;20.95;15.88;;;8.30;99.90;;;;;;5029725;28;20068;-47
2021/05/01 02:27:40;;;;;;;19.45;16.02;;;8.30;99.90;;;;;;5029457;28;20555;-45
2021/05/01 02:30:08;;;;;;;23.00;17.48;;;8.30;99.90;;;;;;5030257;28;20391;-44
2021/05/01 02:32:34;;;;;;;23.73;17.90;;;8.30;99.90;;;;;;5029252;28;20518;-44
2021/05/01 02:34:59;;;;;;;21.95;17.02;;;8.30;99.90;;;;;;5029843;28;20053;-44
2021/05/01 02:37:25;;;;;;;20.85;16.55;;;8.20;99.90;;;;;;5029094;28;20304;-44
2021/05/01 02:39:52;;;;;;;21.25;16.23;;;8.30;99.90;;;;;;5029462;28;20104;-44
2021/05/01 02:42:17;;;;;;;20.25;15.52;;;8.20;99.90;;;;;;5028394;28;20026;-44
2021/05/01 02:44:43;;;;;;;19.88;15.75;;;8.20;99.90;;;;;;5030125;28;20494;-46
2021/05/01 02:47:08;;;;;;;19.95;15.88;;;8.20;99.90;;;;;;5029915;28;20021;-44
2021/05/01 02:49:34;;;;;;;18.92;14.40;;;8.20;99.90;;;;;;5029162;28;20025;-44
2021/05/01 02:51:59;;;;;;;19.92;15.20;;;8.10;99.90;;;;;;5029566;28;20683;-46
2021/05/01 02:54:25;;;;;;;21.08;14.60;;;8.10;99.90;;;;;;5029116;28;20036;-44
2021/05/01 02:56:51;;;;;;;18.13;13.18;;;8.10;99.90;;;;;;5027518;28;20055;-45
2021/05/01 02:59:16;;;;;;;18.88;14.13;;;8.00;99.90;;;;;;5029012;28;20423;-44
2021/05/01 03:01:42;;;;;;;17.92;14.18;;;8.00;99.90;;;;;;5028224;28;20026;-43
2021/05/01 03:04:07;;;;;;;18.17;14.20;;;8.00;99.90;;;;;;5029360;28;20033;-44
2021/05/01 03:06:33;;;;;;;19.98;13.82;;;8.00;99.90;;;;;;5027733;28;20505;-44
2021/05/01 03:08:59;;;;;;;20.20;14.25;;;8.00;99.90;;;;;;5028437;28;20024;-44
2021/05/01 03:11:24;;;;;;;16.75;13.60;;;7.90;99.90;;;;;;5028217;28;20372;-49
2021/05/01 03:13:50;;;;;;;18.25;13.93;;;7.90;99.90;;;;;;5028596;28;20165;-44
2021/05/01 03:16:15;;;;;;;19.00;14.30;;;7.90;99.90;;;;;;5028718;28;20037;-43
2021/05/01 03:18:41;;;;;;;17.38;13.00;;;8.00;99.90;;;;;;5028717;28;20030;-44
2021/05/01 03:21:06;;;;;;;17.73;13.38;;;7.90;99.90;;;;;;5029068;28;20080;-44
2021/05/01 03:23:32;;;;;;;23.00;13.95;;;7.90;99.90;;;;;;5029154;28;20380;-44
2021/05/01 03:25:57;;;;;;;17.65;12.90;;;7.90;99.90;;;;;;5028503;28;20220;-44
2021/05/01 03:28:23;;;;;;;20.35;13.43;;;7.90;99.90;;;;;;5027610;28;20033;-44
2021/05/01 03:30:49;;;;;;;18.45;13.48;;;7.80;99.90;;;;;;5028951;28;20064;-44
2021/05/01 03:33:16;;;;;;;20.95;14.18;;;7.80;99.90;;;;;;5028374;28;20025;-44
2021/05/01 03:35:42;;;;;;;18.75;13.52;;;7.80;99.90;;;;;;5028304;28;20021;-43
2021/05/01 03:38:07;;;;;;;19.02;14.05;;;7.80;99.90;;;;;;5027722;28;20308;-44
2021/05/01 03:40:33;;;;;;;17.88;13.18;;;7.80;99.90;;;;;;5028683;28;20041;-44
2021/05/01 03:42:58;;;;;;;17.60;14.13;;;7.80;99.90;;;;;;5028131;28;20030;-45
2021/05/01 03:45:24;;;;;;;16.88;12.77;;;7.80;99.90;;;;;;5028024;28;20078;-43
2021/05/01 03:47:49;;;;;;;18.45;13.52;;;7.80;99.90;;;;;;5027715;28;20021;-43
2021/05/01 03:50:15;;;;;;;19.98;13.77;;;7.80;99.90;;;;;;5028260;28;20037;-43
2021/05/01 03:52:40;;;;;;;17.02;13.38;;;7.80;99.90;;;;;;5028534;28;20371;-44
2021/05/01 03:55:07;;;;;;;19.63;13.40;;;7.80;99.90;;;;;;5028301;28;20068;-44
2021/05/01 03:57:32;;;;;;;18.83;13.32;;;7.80;99.90;;;;;;5027479;28;20044;-47
2021/05/01 03:59:58;;;;;;;20.35;13.90;;;7.80;99.90;;;;;;5027875;28;20033;-46
2021/05/01 04:02:23;;;;;;;17.02;13.23;;;7.70;99.90;;;;;;5028634;28;20048;-44
2021/05/01 04:04:49;;;;;;;18.05;13.27;;;7.70;99.90;;;;;;5028319;28;20160;-43
2021/05/01 04:07:14;;;;;;;18.17;12.73;;;7.70;99.90;;;;;;5027939;28;20037;-44
2021/05/01 04:09:40;;;;;;;17.48;13.35;;;7.80;99.90;;;;;;5027834;28;20088;-44
2021/05/01 04:12:06;;;;;;;15.93;12.38;;;7.80;99.90;;;;;;5027375;28;20103;-44
2021/05/01 04:14:32;;;;;;;19.63;13.48;;;7.80;99.90;;;;;;5027576;28;20491;-44
2021/05/01 04:16:57;;;;;;;17.65;13.05;;;7.70;99.90;;;;;;5028035;28;20034;-44
2021/05/01 04:19:22;;;;;;;17.95;12.85;;;7.70;99.90;;;;;;5025997;28;20116;-43
2021/05/01 04:21:48;;;;;;;19.55;12.75;;;7.70;99.90;;;;;;5026727;28;20184;-44
2021/05/01 04:24:15;;;;;;;15.18;12.57;;;7.70;99.90;;;;;;5027191;28;20029;-44
2021/05/01 04:26:41;;;;;;;17.15;11.45;;;7.80;99.90;;;;;;5027167;28;20487;-44
2021/05/01 04:29:06;;;;;;;16.88;12.52;;;7.70;99.90;;;;;;5026348;28;20107;-44
2021/05/01 04:31:32;;;;;;;16.75;12.50;;;7.70;99.90;;;;;;5027069;28;20065;-44
2021/05/01 04:33:58;;;;;;;16.85;12.88;;;7.70;99.90;;;;;;5027306;28;20056;-43
2021/05/01 04:36:24;;;;;;;16.33;11.38;;;7.70;99.90;;;;;;5027397;28;20096;-43
2021/05/01 04:38:51;;;;;;;16.92;12.60;;;7.70;99.90;;;;;;5027175;28;20044;-44
2021/05/01 04:41:18;;;;;;;16.20;12.32;;;7.70;99.90;;;;;;5027318;28;20096;-43
2021/05/01 04:43:46;;;;;;;14.68;11.25;;;7.70;99.90;;;;;;5025959;28;20052;-44
2021/05/01 04:46:17;;;;;;;16.55;11.63;;;7.70;99.90;;;;;;5027816;28;20022;-45
2021/05/01 04:48:42;;;;;;;17.98;13.20;;;7.70;99.90;;;;;;5024550;28;20071;-44
2021/05/01 04:51:08;;;;;;;14.85;11.65;;;7.60;99.90;;;;;;5027042;28;20021;-44
2021/05/01 04:53:34;;;;;;;17.08;11.65;;;7.60;99.90;;;;;;5027339;28;20144;-44
2021/05/01 04:56:00;;;;;;;20.77;11.80;;;7.60;99.90;;;;;;5026916;28;20076;-44
2021/05/01 04:58:27;;;;;;;18.73;12.05;;;7.60;99.90;;;;;;5026138;28;20407;-44
2021/05/01 05:00:52;;;;;;;16.77;12.25;;;7.70;99.90;;;;;;5027560;28;20499;-43
2021/05/01 05:03:19;;;;;;;18.15;11.45;;;7.70;99.90;;;;;;5023669;28;20053;-44
2021/05/01 05:05:44;;;;;;;16.45;12.65;;;7.70;99.90;;;;;;5008643;28;20061;-43
2021/05/01 05:08:10;;;;;;;17.75;11.88;;;7.70;99.90;;;;;;5008116;28;20101;-44
2021/05/01 05:10:36;;;;;;;17.08;12.23;;;7.70;99.90;;;;;;5008669;28;20022;-44
2021/05/01 05:13:02;;;;;;;18.95;12.07;;;7.70;99.90;;;;;;5017015;28;20036;-44
2021/05/01 05:15:28;;;;;;;19.00;13.13;;;7.70;99.90;;;;;;5027340;28;20035;-44
2021/05/01 05:17:54;;;;;;;20.02;11.88;;;7.70;99.90;;;;;;5026762;28;20030;-44
2021/05/01 05:20:20;;;;;;;16.05;11.90;;;7.80;99.90;;;;;;5027562;28;20029;-44
2021/05/01 05:22:46;;;;;;;18.05;13.10;;;7.70;99.90;;;;;;5025790;28;20030;-44
2021/05/01 05:25:13;;;;;;;17.17;12.25;;;7.80;99.90;;;;;;5026829;28;20232;-44
2021/05/01 05:27:38;;;;;;;16.45;11.70;;;7.80;99.90;;;;;;5025529;28;20526;-43
2021/05/01 05:30:05;;;;;;;19.88;14.65;;;7.90;99.90;;;;;;5026408;28;20104;-44
2021/05/01 05:32:30;;;;;;;17.88;13.45;;;7.90;99.90;;;;;;5027652;28;20100;-44
2021/05/01 05:34:57;;;;;;;17.23;11.80;;;8.00;99.90;;;;;;5027294;28;20168;-45
2021/05/01 05:37:22;;;;;;;17.88;12.13;;;8.00;99.90;;;;;;5024205;28;20044;-44
2021/05/01 05:39:50;;;;;;;19.92;12.63;;;8.00;99.90;;;;;;5026857;28;20038;-44
2021/05/01 05:42:17;;;;;;;17.70;12.73;;;8.00;99.90;;;;;;5027603;28;20375;-44
2021/05/01 05:44:45;;;;;;;18.45;12.45;;;8.00;99.90;;;;;;5027547;28;20056;-44
2021/05/01 05:47:12;;;;;;;17.75;12.90;;;8.10;99.90;;;;;;5027867;28;20026;-44
2021/05/01 05:49:38;;;;;;;17.95;12.68;;;8.10;99.90;;;;;;5027571;28;20479;-44
2021/05/01 05:52:04;;;;;;;16.63;12.23;;;8.10;99.90;;;;;;5027312;28;20033;-45
2021/05/01 05:54:29;;;;;;;18.17;11.95;;;8.10;99.90;;;;;;5030842;28;20021;-44
2021/05/01 05:56:55;;;;;;;20.33;12.25;;;8.10;99.90;;;;;;5030892;28;20634;-44
2021/05/01 05:59:20;;;;;;;15.98;12.18;;;8.10;99.90;;;;;;5029736;28;20387;-44
2021/05/01 06:01:48;;;;;;;17.75;13.60;;;8.00;99.90;;;;;;5029899;28;20033;-44
2021/05/01 06:04:24;;;;;;;22.55;14.70;;;8.00;99.90;;;;;;5029723;28;20044;-44
2021/05/01 06:07:02;;;;;;;24.70;14.63;;;8.00;99.90;;;;;;5030798;28;20471;-43
2021/05/01 06:09:28;;;;;;;18.60;14.23;;;8.00;99.90;;;;;;5029858;28;20072;-45
2021/05/01 06:11:57;;;;;;;19.85;14.45;;;8.00;99.90;;;;;;5030002;28;20025;-44
2021/05/01 06:14:25;;;;;;;23.92;15.80;;;8.00;99.90;;;;;;5028594;28;20116;-48
2021/05/01 06:16:51;;;;;;;19.77;14.73;;;8.00;99.90;;;;;;5030684;28;20026;-45
2021/05/01 06:19:17;;;;;;;22.67;16.13;;;8.10;99.90;;;;;;5030069;28;20017;-45
2021/05/01 06:21:42;;;;;;;17.48;13.90;;;8.10;99.90;;;;;;5031160;28;20037;-46
2021/05/01 06:24:08;;;;;;;23.08;15.90;;;8.10;99.90;;;;;;5031322;28;20151;-46
2021/05/01 06:26:37;;;;;;;18.67;14.45;;;8.20;99.90;;;;;;5032535;28;20044;-45
2021/05/01 06:29:07;;;;;;;22.92;14.93;;;8.20;99.90;;;;;;5031695;28;20021;-46
2021/05/01 06:31:37;;;;;;;22.48;16.05;;;8.20;99.90;;;;;;5030887;28;20762;-45
2021/05/01 06:34:04;;;;;;;22.17;15.65;;;8.20;99.90;;;;;;5032381;28;20083;-46
2021/05/01 06:36:30;;;;;;;19.77;14.43;;;8.30;99.90;;;;;;5032404;28;20033;-47
2021/05/01 06:39:00;;;;;;;23.42;14.80;;;8.30;99.90;;;;;;5031595;28;20022;-45
2021/05/01 06:41:28;;;;;;;18.80;14.48;;;8.30;99.90;;;;;;5031787;28;20467;-45
2021/05/01 06:44:03;;;;;;;23.70;15.70;;;8.40;99.90;;;;;;5031881;28;20037;-45
2021/05/01 06:46:33;;;;;;;23.77;15.63;;;8.40;99.90;;;;;;5032458;28;20083;-45
2021/05/01 06:49:01;;;;;;;20.90;15.32;;;8.40;99.90;;;;;;5031741;28;20538;-46
2021/05/01 06:51:29;;;;;;;23.73;15.63;;;8.50;99.90;;;;;;5030902;28;20033;-45
2021/05/01 06:53:57;;;;;;;28.17;17.70;;;8.50;99.90;;;;;;5032057;28;20026;-45
2021/05/01 06:56:23;;;;;;;22.38;15.65;;;8.70;99.90;;;;;;5031341;28;20483;-46
2021/05/01 06:58:49;;;;;;;23.20;16.65;;;8.70;99.90;;;;;;5032450;28;20075;-45
2021/05/01 07:01:15;;;;;;;25.52;17.67;;;8.80;99.90;;;;;;5031117;28;20058;-45
2021/05/01 07:03:44;;;;;;;31.17;16.08;;;8.90;99.90;;;;;;5031056;28;20025;-45
2021/05/01 07:06:13;;;;;;;23.25;16.42;;;8.90;99.90;;;;;;5037075;28;20025;-45
2021/05/01 07:08:40;;;;;;;27.35;18.80;;;9.10;99.90;;;;;;5032919;28;20037;-45
2021/05/01 07:11:10;;;;;;;23.80;17.35;;;9.20;99.90;;;;;;5041068;28;20572;-46
2021/05/01 07:13:35;;;;;;;21.40;17.35;;;9.30;99.90;;;;;;5023284;28;20036;-46
2021/05/01 07:16:04;;;;;;;25.98;18.30;;;9.50;99.90;;;;;;5042114;28;20425;-46
2021/05/01 07:18:30;;;;;;;23.38;17.83;;;9.70;99.90;;;;;;5033172;28;20029;-45
2021/05/01 07:20:57;;;;;;;25.95;18.40;;;9.80;99.90;;;;;;5046145;28;20017;-46
2021/05/01 07:23:23;;;;;;;25.10;16.85;;;10.00;99.90;;;;;;5036974;28;20060;-45
2021/05/01 07:25:49;;;;;;;22.50;16.23;;;10.10;99.90;;;;;;5039365;28;20045;-45
2021/05/01 07:28:19;;;;;;;21.55;17.02;;;10.10;99.90;;;;;;5042665;28;20079;-45
2021/05/01 07:30:47;;;;;;;22.27;17.30;;;10.20;99.90;;;;;;5033031;28;20525;-48
2021/05/01 07:33:32;;;;;;;23.05;17.10;;;10.20;99.90;;;;;;5044187;28;20025;-46
2021/05/01 07:36:39;;;;;;;24.83;16.27;;;10.20;99.90;;;;;;5041298;28;20029;-47
2021/05/01 07:39:06;;;;;;;22.45;16.75;;;10.40;99.90;;;;;;5018069;28;20016;-46
2021/05/01 07:41:32;;;;;;;26.35;19.13;;;10.50;99.90;;;;;;5041027;28;20026;-44
2021/05/01 07:43:59;;;;;;;27.40;17.55;;;10.80;99.90;;;;;;5040796;28;20031;-45
2021/05/01 07:46:28;;;;;;;21.88;16.45;;;10.90;99.90;;;;;;5033270;28;20025;-45
2021/05/01 07:48:54;;;;;;;22.67;18.30;;;11.00;99.90;;;;;;5045577;28;20028;-45
2021/05/01 07:51:22;;;;;;;25.50;19.27;;;11.10;99.90;;;;;;5035748;28;20108;-46
2021/05/01 07:53:48;;;;;;;27.70;18.25;;;11.20;99.90;;;;;;5037107;28;20503;-45
2021/05/01 07:56:14;;;;;;;27.13;19.88;;;11.50;99.90;;;;;;5043281;28;20071;-46
2021/05/01 07:58:39;;;;;;;22.95;18.13;;;11.90;99.90;;;;;;5047894;28;20045;-44
2021/05/01 08:01:05;;;;;;;24.35;18.63;;;12.30;99.90;;;;;;5044542;28;20093;-47
2021/05/01 08:03:31;;;;;;;24.85;19.13;;;12.90;99.90;;;;;;5037003;28;20024;-44
2021/05/01 08:05:56;;;;;;;24.35;18.20;;;12.90;99.90;;;;;;5037622;28;20033;-44
2021/05/01 08:08:22;;;;;;;24.60;18.10;;;13.10;99.90;;;;;;5043278;28;20057;-45
2021/05/01 08:10:47;;;;;;;23.63;18.05;;;13.50;99.90;;;;;;5030164;28;20375;-45
2021/05/01 08:13:13;;;;;;;20.73;16.00;;;13.80;99.90;;;;;;5033993;28;20044;-46
2021/05/01 08:15:39;;;;;;;19.88;17.52;;;14.60;99.90;;;;;;5038513;28;20029;-46
2021/05/01 08:18:08;;;;;;;19.33;16.15;;;14.80;99.90;;;;;;5040995;28;20025;-47
2021/05/01 08:20:34;;;;;;;25.92;16.48;;;15.20;99.90;;;;;;5032361;28;20040;-48
2021/05/01 08:23:00;;;;;;;17.30;15.35;;;15.80;99.90;;;;;;5037973;28;20026;-48
2021/05/01 08:25:26;;;;;;;17.05;14.10;;;17.20;97.90;;;;;;5028163;28;20039;-47
2021/05/01 08:27:52;;;;;;;16.15;14.35;;;17.90;96.20;;;;;;5027656;28;20479;-46
2021/05/01 08:30:18;;;;;;;16.48;14.05;;;19.20;90.70;;;;;;5027911;28;20206;-47
2021/05/01 08:32:45;;;;;;;13.20;11.85;;;20.10;86.60;;;;;;5028593;28;20120;-49
2021/05/01 08:35:11;;;;;;;13.32;12.13;;;21.50;69.40;;;;;;5028486;28;20029;-48
2021/05/01 08:37:37;;;;;;;14.38;11.50;;;22.20;66.70;;;;;;5026959;28;20029;-48
2021/05/01 08:40:05;;;;;;;13.63;12.32;;;23.00;62.10;;;;;;5024078;28;20391;-47
2021/05/01 08:42:31;;;;;;;13.05;11.77;;;22.90;58.30;;;;;;5021886;28;20492;-46
2021/05/01 08:45:01;;;;;;;11.65;10.52;;;24.40;55.00;;;;;;5025449;28;20037;-49
2021/05/01 08:47:30;;;;;;;12.02;10.93;;;25.40;51.40;;;;;;5025808;28;20033;-48
2021/05/01 08:49:56;;;;;;;11.50;10.40;;;25.30;50.10;;;;;;5027000;28;20072;-46
2021/05/01 08:52:22;;;;;;;12.10;10.98;;;24.90;51.10;;;;;;5027606;28;20507;-46
2021/05/01 08:54:47;;;;;;;9.88;8.98;;;24.80;49.90;;;;;;5027322;28;20053;-47
2021/05/01 08:57:29;;;;;;;12.77;11.38;;;24.80;49.50;;;;;;5027415;28;20371;-46
2021/05/01 09:00:13;;;;;;;12.20;11.00;;;26.00;45.20;;;;;;5027394;28;20025;-48
2021/05/01 09:02:40;;;;;;;10.85;9.75;;;26.70;45.90;;;;;;5027053;28;20060;-47
2021/05/01 09:05:08;;;;;;;10.48;9.48;;;26.70;45.10;;;;;;5027733;28;20392;-48
2021/05/01 09:07:38;;;;;;;11.27;10.25;;;25.60;45.50;;;;;;5027450;28;20061;-47
2021/05/01 09:10:06;;;;;;;13.43;12.23;;;25.90;46.30;;;;;;5027612;28;20025;-46
2021/05/01 09:12:38;;;;;;;14.48;9.77;;;25.10;45.50;;;;;;5027400;28;20071;-46
2021/05/01 09:15:10;;;;;;;12.77;11.50;;;25.20;46.80;;;;;;5027527;28;20386;-49
2021/05/01 09:17:36;;;;;;;11.55;10.35;;;26.40;44.60;;;;;;5027111;28;20021;-46
2021/05/01 09:20:10;;;;;;;9.77;8.88;;;27.60;42.50;;;;;;5027733;28;20029;-48
2021/05/01 09:23:03;;;;;;;16.52;12.18;;;28.30;41.80;;;;;;5027789;28;20033;-46
2021/05/01 09:25:32;;;;;;;11.18;10.18;;;27.20;43.40;;;;;;5028061;28;20120;-49
2021/05/01 09:28:07;;;;;;;10.50;9.50;;;27.80;41.20;;;;;;5029290;28;20030;-46
2021/05/01 09:30:37;;;;;;;10.35;9.30;;;28.70;39.80;;;;;;5031600;28;20183;-49
2021/05/01 09:33:29;;;;;;;13.13;11.82;;;28.10;40.50;;;;;;5030226;28;20026;-48
2021/05/01 09:36:03;;;;;;;9.55;8.57;;;27.90;41.20;;;;;;5031086;28;20029;-47
2021/05/01 09:38:30;;;;;;;9.30;8.40;;;26.80;43.10;;;;;;5028345;28;20427;-46
2021/05/01 09:40:56;;;;;;;10.38;9.38;;;27.30;42.80;;;;;;5028429;28;20026;-46
2021/05/01 09:43:22;;;;;;;10.07;9.15;;;27.60;42.60;;;;;;5025085;28;20033;-46
2021/05/01 09:45:48;;;;;;;13.85;12.55;;;28.30;42.20;;;;;;5013387;28;20026;-47
2021/05/01 09:48:16;;;;;;;12.57;11.10;;;27.10;40.90;;;;;;5008790;28;20032;-48
2021/05/01 09:50:43;;;;;;;12.75;11.50;;;27.60;41.40;;;;;;5008961;28;20499;-47
2021/05/01 09:53:13;;;;;;;10.63;9.65;;;27.90;41.80;;;;;;5007537;28;20499;-46
2021/05/01 09:55:54;;;;;;;;;;;27.80;40.20;;;;;;5010283;28;20022;-48
2021/05/01 09:58:27;;;;;;;10.43;8.52;;;27.30;42.40;;;;;;5010359;28;19947;-46
2021/05/01 10:01:13;;;;;;;10.95;9.95;;;26.20;42.90;;;;;;5011070;28;20046;-49
2021/05/01 10:03:39;;;;;;;11.15;10.13;;;25.40;43.00;;;;;;5010892;28;20029;-46
2021/05/01 10:06:06;;;;;;;14.50;11.68;;;24.10;45.20;;;;;;5010678;28;20033;-46
2021/05/01 10:08:33;;;;;;;13.57;12.27;;;22.80;47.20;;;;;;5010587;28;20026;-47
2021/05/01 10:11:10;;;;;;;12.35;11.05;;;21.30;48.80;;;;;;5015101;28;20029;-46
2021/05/01 10:13:47;;;;;;;15.25;13.43;;;20.00;51.60;;;;;;5029551;28;20010;-47
2021/05/01 10:16:13;;;;;;;14.10;11.02;;;18.90;54.50;;;;;;5030875;28;20018;-46
2021/05/01 10:18:44;;;;;;;14.38;12.30;;;18.10;56.40;;;;;;5030303;28;20048;-47
2021/05/01 10:21:24;;;;;;;13.77;11.60;;;17.70;59.70;;;;;;5031006;28;20088;-46
2021/05/01 10:23:49;;;;;;;14.07;12.57;;;17.50;60.20;;;;;;5031002;28;20029;-48
2021/05/01 10:26:15;;;;;;;13.95;12.50;;;17.40;61.20;;;;;;5030916;28;20033;-45
2021/05/01 10:28:47;;;;;;;18.75;14.45;;;17.30;61.00;;;;;;5030185;28;20029;-45
2021/05/01 10:31:13;;;;;;;18.02;14.82;;;16.90;62.20;;;;;;5030314;28;20399;-45
2021/05/01 10:33:44;;;;;;;15.57;13.82;;;16.50;61.60;;;;;;5029769;28;20022;-46
2021/05/01 10:36:18;;;;;;;17.35;12.82;;;16.40;64.00;;;;;;5030231;28;20617;-46
2021/05/01 10:38:43;;;;;;;15.70;14.02;;;16.20;63.70;;;;;;5027507;28;20136;-46
2021/05/01 10:41:17;;;;;;;17.52;13.23;;;16.00;65.20;;;;;;5029716;28;20025;-45
2021/05/01 10:43:51;;;;;;;15.05;13.02;;;15.90;65.40;;;;;;5029664;28;20262;-48
2021/05/01 10:46:33;;;;;;;14.13;11.60;;;15.80;67.10;;;;;;5029017;28;20018;-47
2021/05/01 10:49:00;;;;;;;15.18;12.00;;;15.90;66.70;;;;;;5013906;28;20025;-44
2021/05/01 10:51:29;;;;;;;15.48;12.27;;;16.10;67.10;;;;;;5025421;28;20060;-47
2021/05/01 10:54:23;;;;;;;15.35;12.45;;;16.30;68.10;;;;;;5029972;28;20169;-48
2021/05/01 10:56:54;;;;;;;16.50;13.27;;;16.50;65.70;;;;;;5015905;28;20037;-47
2021/05/01 10:59:22;;;;;;;13.38;11.15;;;16.30;65.80;;;;;;5007660;28;20273;-47
2021/05/01 11:01:51;;;;;;;13.23;11.63;;;16.30;64.70;;;;;;5008781;28;20038;-47
2021/05/01 11:04:19;;;;;;;15.65;11.50;;;16.20;65.00;;;;;;5008601;28;20088;-44
2021/05/01 11:06:50;;;;;;;14.10;11.05;;;16.30;65.90;;;;;;5008364;28;20026;-47
2021/05/01 11:09:22;;;;;;;;;;;16.30;65.80;;;;;;5006852;28;20014;-44
2021/05/01 11:11:53;;;;;;;12.25;10.45;;;16.10;65.80;;;;;;5007550;28;19916;-45
2021/05/01 11:14:24;;;;;;;13.75;11.00;;;16.00;65.30;;;;;;5020913;28;20064;-47
2021/05/01 11:17:04;;;;;;;12.40;10.05;;;15.90;64.00;;;;;;5028228;28;20442;-47
2021/05/01 11:19:32;;;;;;;12.82;10.52;;;15.90;64.50;;;;;;5027651;28;20068;-46
2021/05/01 11:21:59;;;;;;;13.23;10.80;;;16.10;64.90;;;;;;5028541;28;20037;-45
2021/05/01 11:24:26;;;;;;;14.43;12.10;;;17.00;63.60;;;;;;5028786;28;20065;-46
2021/05/01 11:26:52;;;;;;;12.32;9.73;;;17.30;61.40;;;;;;5028112;28;20033;-46
2021/05/01 11:29:17;;;;;;;14.93;11.55;;;17.30;62.30;;;;;;5027586;28;20120;-46
2021/05/01 11:31:46;;;;;;;11.75;9.75;;;17.00;62.60;;;;;;5029649;28;20125;-47
2021/05/01 11:34:14;;;;;;;10.07;8.75;;;16.90;60.70;;;;;;5031095;28;20158;-45
2021/05/01 11:36:50;;;;;;;10.23;8.45;;;16.60;61.20;;;;;;5031012;28;20079;-45
2021/05/01 11:39:16;;;;;;;13.38;10.02;;;16.30;62.20;;;;;;5029474;28;20022;-46
2021/05/01 11:41:43;;;;;;;13.48;11.57;;;16.10;64.40;;;;;;5029707;28;20495;-45
2021/05/01 11:44:10;;;;;;;15.45;10.40;;;15.90;65.50;;;;;;5029597;28;20017;-46
2021/05/01 11:46:50;;;;;;;13.07;10.80;;;15.70;65.90;;;;;;5029359;28;20018;-45
2021/05/01 11:49:20;;;;;;;13.70;10.73;;;15.60;65.80;;;;;;5024701;28;20075;-46
2021/05/01 11:52:15;;;;;;;13.52;10.90;;;15.60;66.60;;;;;;5025661;28;20025;-47
2021/05/01 11:55:00;;;;;;;16.10;11.63;;;15.50;67.10;;;;;;5029043;28;20367;-49
2021/05/01 11:57:56;;;;;;;14.95;12.32;;;15.50;68.00;;;;;;5022629;28;20053;-46
2021/05/01 12:00:27;;;;;;;15.73;11.20;;;15.30;67.50;;;;;;5008661;28;20590;-46
2021/05/01 12:02:54;;;;;;;14.65;11.13;;;15.30;68.40;;;;;;5009740;28;20076;-46
2021/05/01 12:05:23;;;;;;;15.00;12.05;;;15.20;68.20;;;;;;5009810;28;20050;-47
2021/05/01 12:08:20;;;;;;;13.68;10.15;;;15.20;68.40;;;;;;5009020;28;20506;-45
2021/05/01 12:10:48;;;;;;;14.27;10.82;;;14.80;69.70;;;;;;5009635;28;20029;-46
2021/05/01 12:13:20;;;;;;;13.57;11.07;;;14.60;71.60;;;;;;5012801;28;20045;-45
2021/05/01 12:15:53;;;;;;;15.30;11.80;;;14.40;71.90;;;;;;5029040;28;20026;-46
2021/05/01 12:18:20;;;;;;;15.07;11.82;;;14.10;71.70;;;;;;5028803;28;20040;-45
2021/05/01 12:20:52;;;;;;;14.13;11.32;;;13.70;73.00;;;;;;5024578;28;20096;-46
2021/05/01 12:23:40;;;;;;;13.55;10.13;;;13.70;75.30;;;;;;5014743;28;20177;-46
2021/05/01 12:26:06;;;;;;;12.68;9.65;;;13.70;76.80;;;;;;5008145;28;20029;-46
2021/05/01 12:28:40;;;;;;;15.23;10.45;;;13.80;75.20;;;;;;5005097;28;20018;-46
2021/05/01 12:31:07;;;;;;;12.63;10.55;;;13.80;75.60;;;;;;5008301;28;20113;-44
2021/05/01 12:33:32;;;;;;;13.27;9.85;;;13.80;74.10;;;;;;5007908;28;20029;-46
2021/05/01 12:36:06;;;;;;;14.55;9.13;;;13.80;75.40;;;;;;5008278;28;20022;-47
2021/05/01 12:38:34;;;;;;;8.90;7.82;;;13.90;74.60;;;;;;5020014;28;20582;-46